Time;durP1;ratioP1;P1;durP2;ratioP2;P2;SDS_P1;SDS_P2;PMS_P1;PMS_P2;Temp;Humidity;BMP_temperature;BMP_pressure;BME280_temperature;BME280_humidity;BME280_pressure;Samples;Min_cycle;Max_cycle;Signal;HPM_P1;HPM_P2
2023/09/16 00:02:20;;;;;;;0.10;0.10;;;;;;;20.59;60.65;101525.19;5042015;28;20562;-92
2023/09/16 00:04:46;;;;;;;0.20;0.20;;;;;;;20.64;59.99;101520.41;5042411;28;20060;-94
2023/09/16 00:07:13;;;;;;;0.20;0.20;;;;;;;20.68;60.14;101542.88;5041162;28;20023;-93
2023/09/16 00:09:40;;;;;;;0.20;0.20;;;;;;;20.71;59.88;101536.53;5042433;28;20040;-92
2023/09/16 00:12:05;;;;;;;0.20;0.20;;;;;;;20.58;59.90;101536.66;5042398;28;20102;-92
2023/09/16 00:14:31;;;;;;;0.20;0.20;;;;;;;20.52;60.29;101547.63;5041043;28;20161;-92
2023/09/16 00:17:00;;;;;;;0.10;0.10;;;;;;;20.52;60.60;101553.72;5040894;28;20020;-92
2023/09/16 00:19:25;;;;;;;0.10;0.10;;;;;;;20.50;60.95;101560.91;5041854;28;20027;-92
2023/09/16 00:21:51;;;;;;;0.20;0.20;;;;;;;20.45;60.97;101563.06;5057194;28;20413;-93
2023/09/16 00:24:18;;;;;;;0.20;0.20;;;;;;;20.56;60.79;101565.69;5040960;28;20120;-93
2023/09/16 00:26:43;;;;;;;0.20;0.20;;;;;;;20.45;61.01;101559.56;5042074;28;20118;-93
2023/09/16 00:29:09;;;;;;;0.10;0.10;;;;;;;20.43;61.25;101569.34;5040876;28;20117;-93
2023/09/16 00:31:36;;;;;;;0.10;0.10;;;;;;;20.38;61.19;101568.84;5041475;28;20020;-93
2023/09/16 00:34:02;;;;;;;0.10;0.10;;;;;;;20.34;61.54;101579.56;5043367;28;20032;-92
2023/09/16 00:36:28;;;;;;;0.20;0.20;;;;;;;20.22;62.12;101574.41;5041566;28;20119;-93
2023/09/16 00:38:54;;;;;;;0.20;0.20;;;;;;;20.24;61.78;101573.31;5042065;28;20024;-93
2023/09/16 00:41:19;;;;;;;0.20;0.20;;;;;;;20.08;61.85;101540.44;5040537;28;20035;-92
2023/09/16 00:43:45;;;;;;;0.10;0.10;;;;;;;20.18;61.97;101571.16;5073963;28;20027;-92
2023/09/16 00:46:10;;;;;;;0.10;0.10;;;;;;;19.97;62.49;101552.59;5040767;28;20035;-93
2023/09/16 00:48:36;;;;;;;0.20;0.20;;;;;;;19.93;62.35;101563.41;5040779;28;20058;-93
2023/09/16 00:51:02;;;;;;;0.10;0.10;;;;;;;20.10;62.25;101576.16;5041531;28;20024;-92
2023/09/16 00:53:27;;;;;;;0.10;0.10;;;;;;;20.05;62.37;101578.25;5040802;28;20027;-93
2023/09/16 00:55:53;;;;;;;0.20;0.20;;;;;;;20.07;62.57;101572.94;5074084;28;20035;-92
2023/09/16 00:58:18;;;;;;;0.10;0.10;;;;;;;20.05;62.60;101570.38;5057488;28;20024;-92
2023/09/16 01:00:47;;;;;;;0.20;0.20;;;;;;;19.94;62.89;101572.97;5074171;28;20043;-92
2023/09/16 01:03:14;;;;;;;0.10;0.10;;;;;;;19.79;63.24;101566.22;5041131;28;20158;-92
2023/09/16 01:05:39;;;;;;;0.10;0.10;;;;;;;19.77;63.31;101561.09;5040970;28;20024;-93
2023/09/16 01:08:05;;;;;;;0.10;0.10;;;;;;;19.74;63.45;101566.53;5040739;28;20055;-92
2023/09/16 01:10:32;;;;;;;0.10;0.10;;;;;;;19.84;63.13;101578.06;5074221;28;20500;-92
2023/09/16 01:12:58;;;;;;;0.20;0.20;;;;;;;19.76;63.72;101586.50;5040974;28;20027;-92
2023/09/16 01:15:27;;;;;;;0.10;0.10;;;;;;;19.75;63.35;101581.34;5073562;28;20027;-91
2023/09/16 01:18:39;;;;;;;0.20;0.20;;;;;;;19.79;63.76;101589.84;5058201;28;20023;-92
2023/09/16 01:21:05;;;;;;;0.10;0.10;;;;;;;19.63;64.09;101585.69;4999569;28;20036;-92
2023/09/16 01:23:32;;;;;;;0.20;0.20;;;;;;;19.71;64.09;101588.59;4983970;28;20513;-92
2023/09/16 01:25:58;;;;;;;0.10;0.10;;;;;;;19.62;64.48;101589.28;5015921;28;20098;-92
2023/09/16 01:28:24;;;;;;;0.20;0.20;;;;;;;19.68;64.50;101590.63;5043738;28;20019;-92
2023/09/16 01:30:50;;;;;;;0.20;0.20;;;;;;;19.74;64.43;101598.88;5060384;28;20028;-91
2023/09/16 01:33:22;;;;;;;0.10;0.10;;;;;;;19.69;64.84;101595.75;5043787;28;20027;-92
2023/09/16 01:35:49;;;;;;;0.10;0.10;;;;;;;19.65;64.86;101604.78;5060666;28;20579;-92
2023/09/16 01:38:15;;;;;;;0.20;0.20;;;;;;;19.76;65.01;101597.00;5043417;28;20430;-94
2023/09/16 01:40:41;;;;;;;0.20;0.20;;;;;;;19.55;64.50;101568.78;5043914;28;20028;-92
2023/09/16 01:43:06;;;;;;;0.10;0.10;;;;;;;19.76;64.14;101591.75;5044317;28;20043;-92
2023/09/16 01:45:42;;;;;;;0.10;0.10;;;;;;;19.80;64.57;101602.03;5043966;28;20028;-94
2023/09/16 01:48:08;;;;;;;0.10;0.10;;;;;;;19.83;64.76;101614.94;5044650;28;20465;-94
2023/09/16 01:50:34;;;;;;;0.10;0.10;;;;;;;19.81;64.68;101615.03;5043117;28;20024;-92
2023/09/16 01:53:01;;;;;;;0.20;0.20;;;;;;;19.79;64.83;101616.09;5043232;28;20030;-93
2023/09/16 01:55:26;;;;;;;0.13;0.13;;;;;;;19.85;64.33;101616.47;5043691;28;20055;-92
2023/09/16 01:57:52;;;;;;;0.20;0.20;;;;;;;19.81;64.92;101624.72;5076409;28;20055;-92
2023/09/16 02:00:17;;;;;;;0.10;0.10;;;;;;;19.75;64.91;101616.31;5043773;28;20024;-95
2023/09/16 02:02:43;;;;;;;0.10;0.10;;;;;;;19.82;64.89;101623.75;5043093;28;20027;-93
2023/09/16 02:05:09;;;;;;;0.20;0.20;;;;;;;19.93;64.74;101624.66;5076147;28;20055;-93
2023/09/16 02:07:34;;;;;;;0.20;0.20;;;;;;;19.76;65.08;101622.41;5042903;28;20370;-92
2023/09/16 02:10:00;;;;;;;0.20;0.20;;;;;;;19.75;65.30;101620.72;5077371;28;20024;-92
2023/09/16 02:12:25;;;;;;;0.20;0.20;;;;;;;19.80;65.24;101631.75;5043142;28;20393;-92
2023/09/16 02:14:51;;;;;;;0.10;0.10;;;;;;;19.87;64.61;101624.28;5043438;28;20016;-92
2023/09/16 02:17:17;;;;;;;0.20;0.20;;;;;;;19.89;64.41;101627.63;5042980;28;20038;-92
2023/09/16 02:19:43;;;;;;;0.20;0.20;;;;;;;19.76;65.04;101627.66;5042884;28;20024;-93
2023/09/16 02:22:09;;;;;;;0.20;0.20;;;;;;;19.64;65.49;101629.38;5042889;28;20053;-93
2023/09/16 02:24:34;;;;;;;0.20;0.20;;;;;;;19.76;65.14;101630.28;5042688;28;20530;-92
2023/09/16 02:27:00;;;;;;;0.20;0.20;;;;;;;19.85;65.07;101626.16;5075997;28;20024;-91
2023/09/16 02:29:25;;;;;;;0.20;0.20;;;;;;;19.82;64.78;101616.72;5043063;28;20032;-93
2023/09/16 02:31:51;;;;;;;0.10;0.10;;;;;;;19.76;65.15;101631.16;5042765;28;20031;-92
2023/09/16 02:34:16;;;;;;;0.20;0.20;;;;;;;19.87;64.18;101621.66;5075831;28;20074;-92
2023/09/16 02:36:42;;;;;;;0.20;0.20;;;;;;;20.01;64.65;101637.22;5075871;28;20028;-92
2023/09/16 02:39:07;;;;;;;0.10;0.10;;;;;;;19.91;64.72;101636.22;5075838;28;20016;-92
2023/09/16 02:41:33;;;;;;;0.20;0.20;;;;;;;19.87;64.93;101621.66;5043582;28;20483;-92
2023/09/16 02:43:58;;;;;;;0.20;0.20;;;;;;;19.82;64.92;101624.59;5043816;28;20028;-93
2023/09/16 02:46:24;;;;;;;0.20;0.20;;;;;;;19.90;64.77;101618.78;5075537;28;20023;-92
2023/09/16 02:48:49;;;;;;;0.20;0.20;;;;;;;19.84;64.76;101620.06;5042496;28;20058;-92
2023/09/16 02:51:14;;;;;;;0.20;0.20;;;;;;;19.81;64.89;101627.34;5042505;28;20054;-93
2023/09/16 02:53:40;;;;;;;0.20;0.20;;;;;;;19.85;65.08;101615.66;5043715;28;20024;-92
2023/09/16 02:56:08;;;;;;;0.20;0.20;;;;;;;19.81;64.95;101616.84;5042441;28;20503;-92
2023/09/16 02:58:34;;;;;;;0.20;0.20;;;;;;;19.96;64.68;101629.69;5043252;28;20081;-93
2023/09/16 03:00:59;;;;;;;0.20;0.20;;;;;;;19.99;64.54;101633.88;5042634;28;20024;-93
2023/09/16 03:03:49;;;;;;;0.20;0.20;;;;;;;19.98;64.69;101632.22;5076699;28;20468;-93
2023/09/16 03:06:15;;;;;;;0.20;0.20;;;;;;;19.97;64.74;101630.53;5059070;28;20093;-92
2023/09/16 03:08:40;;;;;;;0.20;0.20;;;;;;;19.93;64.99;101631.69;5042232;28;20485;-92
2023/09/16 03:11:06;;;;;;;0.20;0.20;;;;;;;19.91;65.00;101638.84;5042690;28;20058;-92
2023/09/16 03:13:31;;;;;;;0.20;0.20;;;;;;;19.80;65.66;101631.75;5041736;28;20469;-92
2023/09/16 03:16:19;;;;;;;0.20;0.20;;;;;;;19.68;65.95;101624.75;5041675;28;20114;-92
2023/09/16 03:18:48;;;;;;;0.10;0.10;;;;;;;19.73;65.91;101626.09;5058280;28;20378;-92
2023/09/16 03:21:14;;;;;;;0.20;0.20;;;;;;;19.84;65.70;101641.06;5058530;28;20492;-93
2023/09/16 03:23:41;;;;;;;0.10;0.10;;;;;;;19.94;65.72;101646.50;5041570;28;20032;-92
2023/09/16 03:26:07;;;;;;;0.20;0.20;;;;;;;19.95;65.75;101637.66;5075013;28;20058;-93
2023/09/16 03:28:32;;;;;;;0.10;0.10;;;;;;;20.08;65.14;101643.72;5041791;28;20028;-93
2023/09/16 03:30:58;;;;;;;0.20;0.20;;;;;;;20.04;65.51;101629.13;5042697;28;20077;-92
2023/09/16 03:33:23;;;;;;;0.20;0.20;;;;;;;20.08;65.31;101635.84;5042518;28;20477;-94
2023/09/16 03:35:49;;;;;;;0.20;0.20;;;;;;;20.13;65.36;101646.84;5058181;28;20023;-93
2023/09/16 03:38:16;;;;;;;0.20;0.20;;;;;;;20.11;65.29;101629.53;5041415;28;20024;-93
2023/09/16 03:40:42;;;;;;;0.10;0.10;;;;;;;20.16;65.55;101643.19;5041843;28;20051;-93
2023/09/16 03:43:07;;;;;;;0.20;0.20;;;;;;;20.15;65.34;101629.16;5075965;28;20531;-93
2023/09/16 03:45:33;;;;;;;0.20;0.20;;;;;;;20.09;65.64;101640.16;5041279;28;20488;-93
2023/09/16 03:47:58;;;;;;;0.20;0.20;;;;;;;20.11;65.43;101632.16;5043245;28;20027;-93
2023/09/16 03:50:24;;;;;;;0.20;0.20;;;;;;;19.99;65.44;101626.00;5041228;28;20031;-93
2023/09/16 03:52:49;;;;;;;0.20;0.20;;;;;;;20.10;65.33;101636.56;5041660;28;20034;-93
2023/09/16 03:55:15;;;;;;;0.20;0.20;;;;;;;19.93;65.93;101624.66;5075262;28;20031;-93
2023/09/16 03:57:41;;;;;;;0.20;0.20;;;;;;;19.98;66.04;101640.09;5057892;28;20027;-93
2023/09/16 04:00:07;;;;;;;0.20;0.20;;;;;;;19.94;66.24;101641.25;5042048;28;20096;-92
2023/09/16 04:02:32;;;;;;;0.20;0.20;;;;;;;19.95;66.24;101635.03;5041654;28;20016;-92
2023/09/16 04:04:58;;;;;;;0.10;0.10;;;;;;;19.95;66.47;101651.63;5042180;28;20031;-92
2023/09/16 04:07:23;;;;;;;0.10;0.10;;;;;;;19.89;66.55;101632.88;5042472;28;20020;-93
2023/09/16 04:09:49;;;;;;;0.20;0.20;;;;;;;19.97;66.61;101651.56;5040794;28;20040;-93
2023/09/16 04:12:14;;;;;;;0.10;0.10;;;;;;;20.00;66.48;101652.16;5041195;28;20024;-92
2023/09/16 04:14:40;;;;;;;0.20;0.20;;;;;;;19.87;66.98;101642.66;5041144;28;20024;-93
2023/09/16 04:17:05;;;;;;;0.20;0.20;;;;;;;19.83;67.68;101651.69;5040917;28;20362;-93
2023/09/16 04:19:31;;;;;;;0.20;0.20;;;;;;;19.84;67.96;101656.00;5041003;28;20085;-92
2023/09/16 04:21:57;;;;;;;0.20;0.20;;;;;;;19.70;68.79;101651.72;5041852;28;20024;-92
2023/09/16 04:24:22;;;;;;;0.15;0.15;;;;;;;19.66;69.54;101643.22;5040434;28;20502;-92
2023/09/16 04:26:47;;;;;;;0.20;0.20;;;;;;;19.64;71.08;101644.28;5040608;28;20118;-92
2023/09/16 04:29:13;;;;;;;0.20;0.20;;;;;;;19.65;71.95;101652.03;5074121;28;20050;-94
2023/09/16 04:31:38;;;;;;;0.20;0.20;;;;;;;19.67;71.80;101655.41;5041516;28;20032;-93
2023/09/16 04:34:04;;;;;;;0.20;0.20;;;;;;;19.70;71.16;101655.19;5042417;28;20023;-94
2023/09/16 04:36:29;;;;;;;0.10;0.10;;;;;;;19.61;72.04;101655.84;5041347;28;20024;-93
2023/09/16 04:38:55;;;;;;;0.20;0.20;;;;;;;19.49;72.12;101660.13;5074462;28;20069;-93
2023/09/16 04:41:21;;;;;;;0.20;0.20;;;;;;;19.48;72.66;101676.00;5057691;28;20027;-93
2023/09/16 04:43:49;;;;;;;0.20;0.20;;;;;;;19.55;72.70;101686.88;5041572;28;20028;-93
2023/09/16 04:46:16;;;;;;;0.10;0.10;;;;;;;19.45;72.94;101682.28;5042067;28;20055;-93
2023/09/16 04:48:42;;;;;;;0.20;0.20;;;;;;;19.52;72.90;101684.50;5041700;28;20461;-93
2023/09/16 04:51:07;;;;;;;0.20;0.20;;;;;;;19.48;72.83;101691.75;5041987;28;20035;-93
2023/09/16 04:53:33;;;;;;;0.20;0.20;;;;;;;19.40;72.71;101678.31;5042918;28;20457;-93
2023/09/16 04:56:02;;;;;;;0.10;0.10;;;;;;;19.45;73.21;101687.53;5044816;28;20047;-93
2023/09/16 04:58:27;;;;;;;0.20;0.20;;;;;;;19.42;73.47;101693.00;5044234;28;20105;-94
2023/09/16 05:00:53;;;;;;;0.10;0.10;;;;;;;19.37;73.83;101694.25;5060581;28;20028;-93
2023/09/16 05:03:18;;;;;;;0.20;0.20;;;;;;;19.46;74.66;101698.88;5043997;28;20027;-91
2023/09/16 05:05:45;;;;;;;0.20;0.20;;;;;;;19.55;74.88;101687.72;5044258;28;20028;-92
2023/09/16 05:08:11;;;;;;;0.20;0.20;;;;;;;19.59;75.49;101688.41;5043817;28;20109;-92
2023/09/16 05:10:36;;;;;;;0.10;0.10;;;;;;;19.54;75.67;101696.56;5043820;28;20414;-92
2023/09/16 05:13:02;;;;;;;0.20;0.20;;;;;;;19.50;75.95;101679.34;5077109;28;20027;-92
2023/09/16 05:15:27;;;;;;;0.10;0.10;;;;;;;19.48;76.54;101697.84;5077084;28;20024;-93
2023/09/16 05:17:53;;;;;;;0.10;0.10;;;;;;;19.60;76.15;101696.16;5043806;28;20389;-91
2023/09/16 05:20:18;;;;;;;0.10;0.10;;;;;;;19.60;76.06;101700.56;5044092;28;20047;-93
2023/09/16 05:22:47;;;;;;;0.13;0.13;;;;;;;19.61;76.30;101703.09;5043543;28;20035;-92
2023/09/16 05:25:13;;;;;;;0.10;0.10;;;;;;;19.54;76.78;101704.41;5043752;28;20139;-93
2023/09/16 05:27:38;;;;;;;0.20;0.20;;;;;;;19.60;76.52;101706.66;5043676;28;20461;-92
2023/09/16 05:30:05;;;;;;;0.17;0.17;;;;;;;19.66;76.19;101698.34;5076842;28;20089;-93
2023/09/16 05:32:31;;;;;;;0.10;0.10;;;;;;;19.71;76.22;101708.53;5077010;28;20070;-92
2023/09/16 05:34:56;;;;;;;0.10;0.10;;;;;;;19.56;76.86;101713.06;5043975;28;20024;-93
2023/09/16 05:37:22;;;;;;;0.20;0.20;;;;;;;19.53;76.63;101715.88;5076594;28;20024;-93
2023/09/16 05:39:47;;;;;;;0.10;0.10;;;;;;;19.63;76.49;101729.22;5043374;28;20028;-92
2023/09/16 05:42:13;;;;;;;0.20;0.20;;;;;;;19.69;76.74;101724.41;5059509;28;20031;-93
2023/09/16 05:44:38;;;;;;;0.20;0.20;;;;;;;19.73;76.43;101728.47;5043701;28;20024;-92
2023/09/16 05:47:04;;;;;;;0.10;0.10;;;;;;;19.75;76.64;101728.38;5043363;28;20028;-93
2023/09/16 05:49:29;;;;;;;0.13;0.13;;;;;;;19.72;76.41;101736.47;5060149;28;20477;-93
2023/09/16 05:51:55;;;;;;;0.20;0.20;;;;;;;19.69;76.88;101736.69;5042869;28;20020;-94
2023/09/16 05:54:21;;;;;;;0.20;0.20;;;;;;;19.73;75.95;101738.16;5042791;28;20131;-93
2023/09/16 05:56:46;;;;;;;0.20;0.20;;;;;;;19.76;76.11;101738.78;5076510;28;20389;-94
2023/09/16 05:59:13;;;;;;;0.20;0.20;;;;;;;19.90;75.78;101735.19;5043216;28;20042;-92
2023/09/16 06:01:39;;;;;;;0.20;0.20;;;;;;;19.97;76.20;101740.84;5044174;28;20016;-93
2023/09/16 06:04:04;;;;;;;0.20;0.20;;;;;;;19.95;75.69;101737.47;5076041;28;20028;-93
2023/09/16 06:06:30;;;;;;;0.20;0.20;;;;;;;20.03;75.59;101741.22;5043175;28;20020;-92
2023/09/16 06:08:56;;;;;;;0.20;0.20;;;;;;;20.03;74.97;101735.13;5042770;28;20409;-93
2023/09/16 06:11:26;;;;;;;0.20;0.20;;;;;;;20.03;75.15;101732.50;5059568;28;20024;-92
2023/09/16 06:13:52;;;;;;;0.20;0.20;;;;;;;19.96;76.29;101728.63;5044094;28;20123;-92
2023/09/16 06:16:18;;;;;;;0.20;0.20;;;;;;;20.15;75.20;101739.50;5043440;28;20024;-92
2023/09/16 06:18:43;;;;;;;0.20;0.20;;;;;;;20.10;75.41;101732.94;5043296;28;20496;-93
2023/09/16 06:21:08;;;;;;;0.20;0.20;;;;;;;20.13;74.51;101736.16;5075643;28;20126;-94
2023/09/16 06:23:34;;;;;;;0.20;0.20;;;;;;;20.15;75.32;101739.50;5043099;28;20024;-94
2023/09/16 06:25:59;;;;;;;0.20;0.20;;;;;;;20.13;74.65;101724.81;5043191;28;20379;-92
2023/09/16 06:28:25;;;;;;;0.20;0.20;;;;;;;20.25;74.78;101737.06;5042816;28;20027;-93
2023/09/16 06:30:50;;;;;;;0.20;0.20;;;;;;;20.24;75.82;101744.09;5042654;28;20184;-93
2023/09/16 06:33:16;;;;;;;0.20;0.20;;;;;;;20.25;75.83;101726.56;5043185;28;20081;-92
2023/09/16 06:35:41;;;;;;;0.20;0.20;;;;;;;20.39;75.59;101743.97;5059948;28;20034;-92
2023/09/16 06:38:06;;;;;;;0.20;0.20;;;;;;;20.48;75.36;101745.97;5042549;28;20024;-92
2023/09/16 06:40:32;;;;;;;0.20;0.20;;;;;;;20.47;75.04;101755.63;5059281;28;20394;-92
2023/09/16 06:42:57;;;;;;;0.20;0.20;;;;;;;20.44;75.43;101755.00;5042841;28;20412;-92
2023/09/16 06:45:23;;;;;;;0.15;0.15;;;;;;;20.46;75.36;101761.00;5042624;28;20024;-93
2023/09/16 06:47:48;;;;;;;0.20;0.20;;;;;;;20.46;75.35;101764.47;5042218;28;20031;-93
2023/09/16 06:50:14;;;;;;;0.10;0.10;;;;;;;20.53;75.17;101759.59;5042548;28;20100;-92
2023/09/16 06:52:39;;;;;;;0.10;0.10;;;;;;;20.55;75.04;101762.94;5042433;28;20024;-92
2023/09/16 06:55:05;;;;;;;0.20;0.20;;;;;;;20.47;75.88;101774.03;5043191;28;20028;-92
2023/09/16 06:57:31;;;;;;;0.20;0.20;;;;;;;20.36;75.81;101770.47;5042968;28;20073;-93
2023/09/16 06:59:57;;;;;;;0.20;0.20;;;;;;;20.39;76.22;101773.72;5042916;28;20454;-93
2023/09/16 07:02:22;;;;;;;0.20;0.20;;;;;;;20.41;75.83;101778.84;5043317;28;20031;-93
2023/09/16 07:04:48;;;;;;;0.20;0.20;;;;;;;20.36;75.69;101778.38;5041948;28;20469;-92
2023/09/16 07:07:14;;;;;;;0.20;0.20;;;;;;;20.38;76.35;101794.84;5041946;28;20028;-92
2023/09/16 07:09:39;;;;;;;0.20;0.20;;;;;;;20.37;76.17;101783.50;5042044;28;20087;-92
2023/09/16 07:12:05;;;;;;;0.20;0.20;;;;;;;20.43;76.26;101790.97;5043588;28;20016;-93
2023/09/16 07:14:31;;;;;;;0.13;0.13;;;;;;;20.44;76.23;101790.00;5042055;28;20392;-92
2023/09/16 07:16:57;;;;;;;0.20;0.20;;;;;;;20.48;75.06;101793.28;5041322;28;20031;-93
2023/09/16 07:19:22;;;;;;;0.20;0.20;;;;;;;20.55;75.12;101800.63;5042073;28;20047;-93
2023/09/16 07:21:48;;;;;;;0.20;0.20;;;;;;;20.59;74.74;101795.97;5042138;28;20579;-93
2023/09/16 07:24:13;;;;;;;0.20;0.20;;;;;;;20.61;74.52;101794.91;5041692;28;20028;-92
2023/09/16 07:26:39;;;;;;;0.20;0.20;;;;;;;20.66;74.71;101791.94;5042195;28;20028;-93
2023/09/16 07:29:04;;;;;;;0.20;0.20;;;;;;;20.76;74.84;101800.84;5041759;28;20036;-93
2023/09/16 07:31:30;;;;;;;0.20;0.20;;;;;;;20.75;74.68;101793.91;5043090;28;20028;-93
2023/09/16 07:33:55;;;;;;;0.10;0.10;;;;;;;20.71;74.79;101804.75;5042821;28;20027;-94
2023/09/16 07:36:21;;;;;;;0.20;0.20;;;;;;;20.70;75.48;101800.44;5042379;28;20461;-93
2023/09/16 07:38:47;;;;;;;0.20;0.20;;;;;;;20.77;75.42;101794.63;5042820;28;20032;-93
2023/09/16 07:41:12;;;;;;;0.20;0.20;;;;;;;20.77;75.37;101799.88;5041402;28;20024;-93
2023/09/16 07:43:37;;;;;;;0.20;0.20;;;;;;;20.77;75.39;101802.50;5074843;28;20513;-92
2023/09/16 07:46:03;;;;;;;0.20;0.20;;;;;;;20.89;75.04;101808.66;5041342;28;20028;-93
2023/09/16 07:48:28;;;;;;;0.20;0.20;;;;;;;20.78;75.04;101801.56;5041439;28;20032;-92
2023/09/16 07:50:54;;;;;;;0.20;0.20;;;;;;;20.79;75.07;101805.03;5041510;28;20031;-92
2023/09/16 07:53:20;;;;;;;0.20;0.20;;;;;;;20.85;75.43;101808.06;5041625;28;20027;-93
2023/09/16 07:55:46;;;;;;;0.20;0.20;;;;;;;21.03;74.34;101810.25;5075099;28;20051;-92
2023/09/16 07:58:11;;;;;;;0.20;0.20;;;;;;;21.08;74.17;101821.28;5042179;28;20493;-94
2023/09/16 08:00:37;;;;;;;0.20;0.20;;;;;;;21.13;73.91;101819.97;5041203;28;20035;-92
2023/09/16 08:03:02;;;;;;;0.17;0.17;;;;;;;21.05;73.95;101811.00;5041720;28;20024;-92
2023/09/16 08:05:28;;;;;;;0.20;0.20;;;;;;;21.11;74.43;101814.00;5075480;28;20024;-93
2023/09/16 08:07:53;;;;;;;0.20;0.20;;;;;;;21.12;74.46;101804.31;5041185;28;21063;-93
2023/09/16 08:10:19;;;;;;;0.20;0.20;;;;;;;21.23;74.50;101822.75;5040987;28;20020;-93
2023/09/16 08:12:44;;;;;;;0.20;0.20;;;;;;;21.28;74.38;101807.50;5040960;28;20030;-92
2023/09/16 08:15:10;;;;;;;0.20;0.20;;;;;;;21.34;74.45;101814.13;5041064;28;20024;-92
2023/09/16 08:17:39;;;;;;;0.20;0.20;;;;;;;21.09;74.69;101767.72;5040895;28;20032;-94
2023/09/16 08:20:08;;;;;;;0.20;0.20;;;;;;;21.36;74.35;101802.50;5042096;28;20020;-93
2023/09/16 08:22:33;;;;;;;0.20;0.20;;;;;;;21.40;74.53;101813.63;5041141;28;20057;-93
2023/09/16 08:24:59;;;;;;;0.10;0.10;;;;;;;21.54;73.84;101807.34;5041026;28;20392;-94
2023/09/16 08:27:25;;;;;;;0.20;0.20;;;;;;;21.62;73.74;101810.19;5075374;28;20027;-93
2023/09/16 08:29:52;;;;;;;0.20;0.20;;;;;;;21.77;72.50;101814.31;5078487;28;20027;-93
2023/09/16 08:32:18;;;;;;;0.20;0.20;;;;;;;21.76;73.17;101813.47;5078290;28;20024;-93
2023/09/16 08:34:44;;;;;;;0.20;0.20;;;;;;;21.87;72.43;101817.06;5078247;28;20027;-93
2023/09/16 08:37:11;;;;;;;0.20;0.20;;;;;;;21.96;71.77;101816.34;5045109;28;20020;-92
2023/09/16 08:39:37;;;;;;;0.20;0.20;;;;;;;21.97;71.59;101820.66;5045050;28;20028;-93
2023/09/16 08:42:27;;;;;;;0.20;0.20;;;;;;;21.95;72.09;101826.03;5044337;28;20043;-93
2023/09/16 08:44:53;;;;;;;0.20;0.20;;;;;;;21.96;71.76;101818.97;5049290;28;20075;-92
2023/09/16 08:47:29;;;;;;;0.20;0.20;;;;;;;22.13;72.34;101830.88;5044090;28;20075;-93
2023/09/16 08:49:58;;;;;;;0.20;0.20;;;;;;;22.36;71.23;101834.31;5044727;28;20027;-93
2023/09/16 08:52:23;;;;;;;0.20;0.20;;;;;;;22.24;70.29;101800.06;5061069;28;20020;-92
2023/09/16 08:54:48;;;;;;;0.20;0.20;;;;;;;22.56;69.58;101838.84;5044267;28;20409;-93
2023/09/16 08:57:14;;;;;;;0.10;0.10;;;;;;;22.57;69.83;101843.97;5044554;28;20024;-92
2023/09/16 08:59:40;;;;;;;0.10;0.10;;;;;;;22.73;69.25;101838.31;5044006;28;20341;-95
2023/09/16 09:02:06;;;;;;;0.20;0.20;;;;;;;22.87;68.26;101851.25;5043825;28;20052;-92
2023/09/16 09:04:32;;;;;;;0.20;0.20;;;;;;;22.95;68.09;101844.50;5077281;28;20493;-94
2023/09/16 09:06:57;;;;;;;0.10;0.10;;;;;;;22.94;67.04;101838.41;5044188;28;20020;-93
2023/09/16 09:09:22;;;;;;;0.20;0.20;;;;;;;23.02;67.49;101849.16;5043771;28;20036;-94
2023/09/16 09:11:48;;;;;;;0.10;0.10;;;;;;;23.08;67.08;101843.34;5060886;28;20024;-94
2023/09/16 09:14:14;;;;;;;0.10;0.10;;;;;;;23.26;66.90;101837.53;5060589;28;20423;-92
2023/09/16 09:16:39;;;;;;;0.20;0.20;;;;;;;23.44;65.98;101831.53;5043874;28;20027;-93
2023/09/16 09:19:04;;;;;;;0.20;0.20;;;;;;;23.67;65.17;101826.97;5043791;28;20086;-93
2023/09/16 09:21:30;;;;;;;0.20;0.20;;;;;;;23.85;63.21;101836.94;5060362;28;20407;-92
2023/09/16 09:23:57;;;;;;;0.20;0.20;;;;;;;24.01;62.04;101827.56;5043861;28;20024;-92
2023/09/16 09:26:23;;;;;;;0.20;0.20;;;;;;;23.96;62.15;101835.03;5044578;28;20078;-94
2023/09/16 09:28:48;;;;;;;0.20;0.20;;;;;;;24.13;61.26;101823.00;5043560;28;20074;-93
2023/09/16 09:31:14;;;;;;;0.17;0.17;;;;;;;24.19;60.49;101825.13;5043701;28;20028;-93
2023/09/16 09:33:44;;;;;;;0.20;0.20;;;;;;;24.20;60.37;101825.97;5060487;28;20031;-93
2023/09/16 09:36:11;;;;;;;0.20;0.20;;;;;;;24.35;60.53;101829.09;5077447;28;20020;-92
2023/09/16 09:38:56;;;;;;;0.20;0.20;;;;;;;24.48;59.88;101832.31;5042952;28;20024;-93
2023/09/16 09:41:21;;;;;;;0.20;0.20;;;;;;;24.42;59.85;101824.94;5076929;28;20026;-94
2023/09/16 09:43:48;;;;;;;0.20;0.20;;;;;;;24.48;60.06;101829.66;5076372;28;20023;-95
2023/09/16 09:46:13;;;;;;;0.10;0.10;;;;;;;24.42;59.61;101820.47;5076608;28;20019;-93
2023/09/16 09:48:39;;;;;;;0.10;0.10;;;;;;;24.26;59.78;101805.09;5043211;28;20019;-93
2023/09/16 09:51:07;;;;;;;0.20;0.20;;;;;;;24.39;59.08;101819.91;5043133;28;20027;-94
2023/09/16 09:53:32;;;;;;;0.10;0.10;;;;;;;24.29;59.57;101818.06;5043340;28;20024;-91
2023/09/16 09:55:58;;;;;;;0.20;0.20;;;;;;;24.37;59.62;101822.69;5042927;28;20028;-93
2023/09/16 09:58:24;;;;;;;0.20;0.20;;;;;;;24.42;59.45;101817.81;5042818;28;20020;-93
2023/09/16 10:00:50;;;;;;;0.20;0.20;;;;;;;24.64;57.71;101823.84;5043295;28;20016;-92
2023/09/16 10:03:20;;;;;;;0.20;0.20;;;;;;;24.68;57.37;101819.94;5042871;28;20034;-93
2023/09/16 10:05:46;;;;;;;0.20;0.20;;;;;;;24.93;57.08;101818.56;5059328;28;20114;-94
2023/09/16 10:08:11;;;;;;;0.20;0.20;;;;;;;25.03;56.78;101817.63;5042772;28;20413;-92
2023/09/16 10:10:37;;;;;;;0.20;0.20;;;;;;;25.26;56.18;101818.16;5042843;28;20031;-93
2023/09/16 10:13:02;;;;;;;0.20;0.20;;;;;;;25.36;55.82;101804.88;5042735;28;20031;-92
2023/09/16 10:15:46;;;;;;;0.20;0.20;;;;;;;25.61;55.53;101816.69;5043106;28;20107;-93
2023/09/16 10:18:12;;;;;;;0.20;0.20;;;;;;;25.66;54.70;101811.78;5059180;28;20039;-92
2023/09/16 10:20:38;;;;;;;0.20;0.20;;;;;;;25.60;54.37;101780.56;5042580;28;20023;-93
2023/09/16 10:23:04;;;;;;;0.20;0.20;;;;;;;25.58;54.91;101788.69;5059271;28;20024;-92
2023/09/16 10:25:29;;;;;;;0.20;0.20;;;;;;;25.53;54.90;101806.81;5058969;28;20031;-93
2023/09/16 10:28:00;;;;;;;0.20;0.20;;;;;;;25.58;55.44;101815.16;5042183;28;20055;-92
2023/09/16 10:30:26;;;;;;;0.20;0.20;;;;;;;25.57;55.34;101786.19;5059639;28;20381;-93
2023/09/16 10:32:52;;;;;;;0.20;0.20;;;;;;;25.80;54.76;101798.09;5042438;28;20050;-93
2023/09/16 10:35:19;;;;;;;0.20;0.20;;;;;;;25.72;54.62;101784.75;5042413;28;20024;-94
2023/09/16 10:37:44;;;;;;;0.20;0.20;;;;;;;25.98;54.33;101796.34;5042223;28;20038;-94
2023/09/16 10:40:10;;;;;;;0.20;0.20;;;;;;;25.94;54.73;101802.91;5075598;28;20024;-93
2023/09/16 10:42:36;;;;;;;0.20;0.20;;;;;;;25.93;54.77;101793.28;5075527;28;20035;-93
2023/09/16 10:45:02;;;;;;;0.20;0.20;;;;;;;25.88;54.89;101784.13;5058690;28;20108;-93
2023/09/16 10:47:27;;;;;;;0.20;0.20;;;;;;;25.90;55.12;101793.59;5042152;28;20052;-94
2023/09/16 10:49:53;;;;;;;0.20;0.20;;;;;;;25.77;55.33;101793.09;5058490;28;20065;-92
2023/09/16 10:52:20;;;;;;;0.20;0.20;;;;;;;25.66;55.33;101780.84;5075431;28;20492;-91
2023/09/16 10:54:54;;;;;;;0.20;0.20;;;;;;;25.67;55.63;101787.81;5041940;28;20027;-94
2023/09/16 10:57:42;;;;;;;0.20;0.20;;;;;;;25.61;55.85;101780.44;5059509;28;20101;-92
2023/09/16 11:00:10;;;;;;;0.10;0.10;;;;;;;25.49;56.09;101780.75;5042045;28;20106;-93
2023/09/16 11:02:49;;;;;;;0.10;0.10;;;;;;;25.46;56.10;101780.03;5075515;28;20028;-92
2023/09/16 11:05:14;;;;;;;0.20;0.20;;;;;;;25.39;56.43;101778.97;5041762;28;20070;-93
2023/09/16 11:07:40;;;;;;;0.20;0.20;;;;;;;25.43;56.56;101774.19;5041613;28;20024;-93
2023/09/16 11:10:06;;;;;;;0.20;0.20;;;;;;;25.37;56.73;101766.84;5041686;28;20031;-92
2023/09/16 11:12:31;;;;;;;0.13;0.13;;;;;;;25.60;55.77;101767.31;5041536;28;20020;-93
2023/09/16 11:14:57;;;;;;;0.20;0.20;;;;;;;25.65;55.13;101768.53;5041731;28;20077;-91
2023/09/16 11:17:23;;;;;;;0.20;0.20;;;;;;;25.65;55.24;101762.41;5041742;28;20556;-93
2023/09/16 11:19:48;;;;;;;0.20;0.20;;;;;;;25.61;54.73;101761.88;5042984;28;20542;-93
2023/09/16 11:22:13;;;;;;;0.20;0.20;;;;;;;25.62;55.04;101765.34;5041641;28;20462;-94